sensor_id;sensor_type;location;lat;lon;timestamp;P1;durP1;ratioP1;P2;durP2;ratioP2
39032;SDS011;24794;51.982;5.878;2023-02-28T00:00:03;5.93;;;1.90;;
39032;SDS011;24794;51.982;5.878;2023-02-28T00:01:11;3.45;;;1.92;;
39032;SDS011;24794;51.982;5.878;2023-02-28T00:02:13;5.30;;;1.90;;
39032;SDS011;24794;51.982;5.878;2023-02-28T00:03:13;3.30;;;1.85;;
39032;SDS011;24794;51.982;5.878;2023-02-28T00:04:14;7.65;;;2.38;;
39032;SDS011;24794;51.982;5.878;2023-02-28T00:05:17;3.33;;;1.90;;
39032;SDS011;24794;51.982;5.878;2023-02-28T00:06:19;5.47;;;1.80;;
39032;SDS011;24794;51.982;5.878;2023-02-28T00:07:20;3.38;;;1.80;;
39032;SDS011;24794;51.982;5.878;2023-02-28T00:08:21;5.53;;;1.73;;
39032;SDS011;24794;51.982;5.878;2023-02-28T00:09:21;4.10;;;1.73;;
39032;SDS011;24794;51.982;5.878;2023-02-28T00:10:26;3.65;;;1.90;;
39032;SDS011;24794;51.982;5.878;2023-02-28T00:11:28;3.42;;;1.80;;
39032;SDS011;24794;51.982;5.878;2023-02-28T00:12:29;5.05;;;1.83;;
39032;SDS011;24794;51.982;5.878;2023-02-28T00:13:30;3.72;;;1.80;;
39032;SDS011;24794;51.982;5.878;2023-02-28T00:14:31;3.45;;;1.58;;
39032;SDS011;24794;51.982;5.878;2023-02-28T00:15:31;4.15;;;2.00;;
39032;SDS011;24794;51.982;5.878;2023-02-28T00:16:33;5.80;;;1.67;;
39032;SDS011;24794;51.982;5.878;2023-02-28T00:17:33;3.33;;;1.90;;
39032;SDS011;24794;51.982;5.878;2023-02-28T00:18:34;3.63;;;1.88;;
39032;SDS011;24794;51.982;5.878;2023-02-28T00:19:35;4.05;;;1.95;;
39032;SDS011;24794;51.982;5.878;2023-02-28T00:20:36;3.80;;;1.73;;
39032;SDS011;24794;51.982;5.878;2023-02-28T00:21:36;3.42;;;1.80;;
39032;SDS011;24794;51.982;5.878;2023-02-28T00:22:43;3.85;;;1.80;;
39032;SDS011;24794;51.982;5.878;2023-02-28T00:23:45;3.58;;;2.10;;
39032;SDS011;24794;51.982;5.878;2023-02-28T00:24:46;6.03;;;2.17;;
39032;SDS011;24794;51.982;5.878;2023-02-28T00:25:47;5.00;;;1.90;;
39032;SDS011;24794;51.982;5.878;2023-02-28T00:26:48;4.15;;;1.98;;
39032;SDS011;24794;51.982;5.878;2023-02-28T00:27:48;3.28;;;2.00;;
39032;SDS011;24794;51.982;5.878;2023-02-28T00:28:51;3.50;;;2.05;;
39032;SDS011;24794;51.982;5.878;2023-02-28T00:29:52;2.90;;;1.75;;
39032;SDS011;24794;51.982;5.878;2023-02-28T00:30:54;6.60;;;2.20;;
39032;SDS011;24794;51.982;5.878;2023-02-28T00:31:54;5.15;;;1.80;;
39032;SDS011;24794;51.982;5.878;2023-02-28T00:32:55;3.72;;;1.77;;
39032;SDS011;24794;51.982;5.878;2023-02-28T00:33:55;5.00;;;1.80;;
39032;SDS011;24794;51.982;5.878;2023-02-28T00:34:56;4.65;;;1.73;;
39032;SDS011;24794;51.982;5.878;2023-02-28T00:36:04;3.55;;;1.85;;
39032;SDS011;24794;51.982;5.878;2023-02-28T00:37:07;5.00;;;2.25;;
39032;SDS011;24794;51.982;5.878;2023-02-28T00:38:10;5.15;;;1.95;;
39032;SDS011;24794;51.982;5.878;2023-02-28T00:39:11;3.65;;;1.98;;
39032;SDS011;24794;51.982;5.878;2023-02-28T00:40:11;3.63;;;1.92;;
39032;SDS011;24794;51.982;5.878;2023-02-28T00:41:12;3.38;;;1.70;;
39032;SDS011;24794;51.982;5.878;2023-02-28T00:42:13;4.95;;;2.30;;
39032;SDS011;24794;51.982;5.878;2023-02-28T00:43:13;4.90;;;1.73;;
39032;SDS011;24794;51.982;5.878;2023-02-28T00:44:14;3.42;;;2.13;;
39032;SDS011;24794;51.982;5.878;2023-02-28T00:45:14;4.72;;;1.92;;
39032;SDS011;24794;51.982;5.878;2023-02-28T00:46:15;3.35;;;2.28;;
39032;SDS011;24794;51.982;5.878;2023-02-28T00:47:16;3.80;;;2.00;;
39032;SDS011;24794;51.982;5.878;2023-02-28T00:48:16;3.42;;;1.90;;
39032;SDS011;24794;51.982;5.878;2023-02-28T00:49:17;4.40;;;2.10;;
39032;SDS011;24794;51.982;5.878;2023-02-28T00:50:18;5.30;;;2.35;;
39032;SDS011;24794;51.982;5.878;2023-02-28T00:51:20;2.72;;;2.15;;
39032;SDS011;24794;51.982;5.878;2023-02-28T00:52:20;3.90;;;2.00;;
39032;SDS011;24794;51.982;5.878;2023-02-28T00:53:21;4.00;;;2.28;;
39032;SDS011;24794;51.982;5.878;2023-02-28T00:54:22;3.83;;;2.00;;
39032;SDS011;24794;51.982;5.878;2023-02-28T00:55:23;4.45;;;2.08;;
39032;SDS011;24794;51.982;5.878;2023-02-28T00:56:24;5.57;;;2.10;;
39032;SDS011;24794;51.982;5.878;2023-02-28T00:57:24;5.65;;;2.08;;
39032;SDS011;24794;51.982;5.878;2023-02-28T00:58:26;4.15;;;2.05;;
39032;SDS011;24794;51.982;5.878;2023-02-28T00:59:27;3.95;;;2.30;;
39032;SDS011;24794;51.982;5.878;2023-02-28T01:00:27;5.47;;;2.40;;
39032;SDS011;24794;51.982;5.878;2023-02-28T01:01:28;5.57;;;2.40;;
39032;SDS011;24794;51.982;5.878;2023-02-28T01:02:28;5.20;;;2.55;;
39032;SDS011;24794;51.982;5.878;2023-02-28T01:03:29;5.05;;;2.10;;
39032;SDS011;24794;51.982;5.878;2023-02-28T01:04:30;4.40;;;2.22;;
39032;SDS011;24794;51.982;5.878;2023-02-28T01:05:30;4.20;;;2.08;;
39032;SDS011;24794;51.982;5.878;2023-02-28T01:06:31;4.85;;;2.38;;
39032;SDS011;24794;51.982;5.878;2023-02-28T01:07:32;4.70;;;2.40;;
39032;SDS011;24794;51.982;5.878;2023-02-28T01:08:32;4.78;;;2.30;;
39032;SDS011;24794;51.982;5.878;2023-02-28T01:09:33;3.67;;;2.00;;
39032;SDS011;24794;51.982;5.878;2023-02-28T01:10:33;4.10;;;1.83;;
39032;SDS011;24794;51.982;5.878;2023-02-28T01:11:36;3.25;;;1.88;;
39032;SDS011;24794;51.982;5.878;2023-02-28T01:12:37;4.95;;;2.00;;
39032;SDS011;24794;51.982;5.878;2023-02-28T01:13:37;3.80;;;2.00;;
39032;SDS011;24794;51.982;5.878;2023-02-28T01:14:38;6.30;;;1.85;;
39032;SDS011;24794;51.982;5.878;2023-02-28T01:15:40;4.35;;;2.10;;
39032;SDS011;24794;51.982;5.878;2023-02-28T01:16:44;3.70;;;2.22;;
39032;SDS011;24794;51.982;5.878;2023-02-28T01:17:44;3.60;;;1.98;;
39032;SDS011;24794;51.982;5.878;2023-02-28T01:18:45;5.90;;;2.10;;
39032;SDS011;24794;51.982;5.878;2023-02-28T01:19:45;3.17;;;1.77;;
39032;SDS011;24794;51.982;5.878;2023-02-28T01:20:46;2.30;;;1.70;;
39032;SDS011;24794;51.982;5.878;2023-02-28T01:21:47;4.25;;;2.03;;
39032;SDS011;24794;51.982;5.878;2023-02-28T01:22:48;4.88;;;1.98;;
39032;SDS011;24794;51.982;5.878;2023-02-28T01:23:49;3.83;;;2.05;;
39032;SDS011;24794;51.982;5.878;2023-02-28T01:24:49;4.28;;;2.28;;
39032;SDS011;24794;51.982;5.878;2023-02-28T01:25:51;7.10;;;2.10;;
39032;SDS011;24794;51.982;5.878;2023-02-28T01:26:52;4.05;;;2.20;;
39032;SDS011;24794;51.982;5.878;2023-02-28T01:27:53;4.53;;;2.28;;
39032;SDS011;24794;51.982;5.878;2023-02-28T01:28:54;4.38;;;2.10;;
39032;SDS011;24794;51.982;5.878;2023-02-28T01:29:55;4.03;;;2.40;;
39032;SDS011;24794;51.982;5.878;2023-02-28T01:30:55;3.38;;;2.10;;
39032;SDS011;24794;51.982;5.878;2023-02-28T01:31:56;4.35;;;2.00;;
39032;SDS011;24794;51.982;5.878;2023-02-28T01:32:59;6.28;;;2.40;;
39032;SDS011;24794;51.982;5.878;2023-02-28T01:34:00;5.80;;;2.30;;
39032;SDS011;24794;51.982;5.878;2023-02-28T01:35:01;4.45;;;2.30;;
39032;SDS011;24794;51.982;5.878;2023-02-28T01:36:03;4.35;;;2.65;;
39032;SDS011;24794;51.982;5.878;2023-02-28T01:37:06;5.20;;;2.45;;
39032;SDS011;24794;51.982;5.878;2023-02-28T01:38:06;4.63;;;2.30;;
39032;SDS011;24794;51.982;5.878;2023-02-28T01:39:07;3.35;;;1.88;;
39032;SDS011;24794;51.982;5.878;2023-02-28T01:40:08;6.13;;;2.45;;
39032;SDS011;24794;51.982;5.878;2023-02-28T01:41:10;3.70;;;2.28;;
39032;SDS011;24794;51.982;5.878;2023-02-28T01:42:25;4.72;;;2.50;;
39032;SDS011;24794;51.982;5.878;2023-02-28T01:43:27;6.93;;;2.38;;
39032;SDS011;24794;51.982;5.878;2023-02-28T01:45:55;6.80;;;2.67;;
39032;SDS011;24794;51.982;5.878;2023-02-28T01:46:57;5.75;;;2.28;;
39032;SDS011;24794;51.982;5.878;2023-02-28T01:47:58;4.78;;;2.15;;
39032;SDS011;24794;51.982;5.878;2023-02-28T01:50:06;4.65;;;2.25;;
39032;SDS011;24794;51.982;5.878;2023-02-28T01:51:16;4.32;;;2.20;;
39032;SDS011;24794;51.982;5.878;2023-02-28T01:52:21;3.58;;;1.90;;
39032;SDS011;24794;51.982;5.878;2023-02-28T01:53:26;3.13;;;2.00;;
39032;SDS011;24794;51.982;5.878;2023-02-28T01:54:33;5.13;;;2.13;;
39032;SDS011;24794;51.982;5.878;2023-02-28T01:55:34;4.15;;;1.80;;
39032;SDS011;24794;51.982;5.878;2023-02-28T01:56:36;2.72;;;2.00;;
39032;SDS011;24794;51.982;5.878;2023-02-28T01:57:41;5.63;;;2.38;;
39032;SDS011;24794;51.982;5.878;2023-02-28T01:58:47;2.80;;;2.20;;
39032;SDS011;24794;51.982;5.878;2023-02-28T01:59:52;4.88;;;1.92;;
39032;SDS011;24794;51.982;5.878;2023-02-28T02:00:58;5.18;;;2.20;;
39032;SDS011;24794;51.982;5.878;2023-02-28T02:01:59;4.70;;;2.00;;
39032;SDS011;24794;51.982;5.878;2023-02-28T02:03:06;3.78;;;2.13;;
39032;SDS011;24794;51.982;5.878;2023-02-28T02:04:10;3.40;;;2.20;;
39032;SDS011;24794;51.982;5.878;2023-02-28T02:05:12;3.35;;;2.00;;
39032;SDS011;24794;51.982;5.878;2023-02-28T02:06:25;3.92;;;2.10;;
39032;SDS011;24794;51.982;5.878;2023-02-28T02:07:29;6.13;;;2.50;;
39032;SDS011;24794;51.982;5.878;2023-02-28T02:08:33;3.78;;;2.40;;
39032;SDS011;24794;51.982;5.878;2023-02-28T02:09:34;6.38;;;2.38;;
39032;SDS011;24794;51.982;5.878;2023-02-28T02:10:35;7.60;;;3.35;;
39032;SDS011;24794;51.982;5.878;2023-02-28T02:11:41;5.78;;;2.80;;
39032;SDS011;24794;51.982;5.878;2023-02-28T02:16:38;5.00;;;2.75;;
39032;SDS011;24794;51.982;5.878;2023-02-28T02:17:48;3.85;;;2.40;;
39032;SDS011;24794;51.982;5.878;2023-02-28T02:26:06;6.82;;;2.70;;
39032;SDS011;24794;51.982;5.878;2023-02-28T02:27:47;3.60;;;2.05;;
39032;SDS011;24794;51.982;5.878;2023-02-28T02:33:05;5.78;;;2.50;;
39032;SDS011;24794;51.982;5.878;2023-02-28T02:34:32;4.70;;;2.50;;
39032;SDS011;24794;51.982;5.878;2023-02-28T02:36:01;4.82;;;2.35;;
39032;SDS011;24794;51.982;5.878;2023-02-28T02:42:50;5.05;;;2.42;;
39032;SDS011;24794;51.982;5.878;2023-02-28T02:44:10;6.65;;;2.60;;
39032;SDS011;24794;51.982;5.878;2023-02-28T02:45:17;3.60;;;2.25;;
39032;SDS011;24794;51.982;5.878;2023-02-28T02:46:39;4.28;;;2.70;;
39032;SDS011;24794;51.982;5.878;2023-02-28T02:47:43;3.90;;;2.40;;
39032;SDS011;24794;51.982;5.878;2023-02-28T02:48:45;6.18;;;2.20;;
39032;SDS011;24794;51.982;5.878;2023-02-28T02:49:51;4.63;;;2.47;;
39032;SDS011;24794;51.982;5.878;2023-02-28T02:50:55;5.40;;;2.65;;
39032;SDS011;24794;51.982;5.878;2023-02-28T02:52:03;3.22;;;2.00;;
39032;SDS011;24794;51.982;5.878;2023-02-28T02:53:06;4.57;;;2.35;;
39032;SDS011;24794;51.982;5.878;2023-02-28T02:54:11;4.28;;;2.20;;
39032;SDS011;24794;51.982;5.878;2023-02-28T02:55:16;4.75;;;2.50;;
39032;SDS011;24794;51.982;5.878;2023-02-28T02:56:18;5.80;;;2.55;;
39032;SDS011;24794;51.982;5.878;2023-02-28T02:57:33;4.63;;;2.40;;
39032;SDS011;24794;51.982;5.878;2023-02-28T02:58:38;4.90;;;2.55;;
39032;SDS011;24794;51.982;5.878;2023-02-28T02:59:42;3.00;;;1.90;;
39032;SDS011;24794;51.982;5.878;2023-02-28T03:00:50;5.00;;;2.22;;
39032;SDS011;24794;51.982;5.878;2023-02-28T03:01:55;3.67;;;2.10;;
39032;SDS011;24794;51.982;5.878;2023-02-28T03:02:59;4.25;;;2.33;;
39032;SDS011;24794;51.982;5.878;2023-02-28T03:04:06;5.00;;;2.45;;
39032;SDS011;24794;51.982;5.878;2023-02-28T03:05:13;3.58;;;2.40;;
39032;SDS011;24794;51.982;5.878;2023-02-28T03:06:21;6.47;;;2.30;;
39032;SDS011;24794;51.982;5.878;2023-02-28T03:07:22;5.63;;;2.80;;
39032;SDS011;24794;51.982;5.878;2023-02-28T03:08:22;5.35;;;2.65;;
39032;SDS011;24794;51.982;5.878;2023-02-28T03:09:24;5.40;;;2.60;;
39032;SDS011;24794;51.982;5.878;2023-02-28T03:10:48;4.15;;;2.40;;
39032;SDS011;24794;51.982;5.878;2023-02-28T03:11:50;5.20;;;2.13;;
39032;SDS011;24794;51.982;5.878;2023-02-28T03:12:58;4.05;;;2.40;;
39032;SDS011;24794;51.982;5.878;2023-02-28T03:15:27;5.80;;;2.33;;
39032;SDS011;24794;51.982;5.878;2023-02-28T03:16:40;4.95;;;2.50;;
39032;SDS011;24794;51.982;5.878;2023-02-28T03:21:37;3.42;;;2.47;;
39032;SDS011;24794;51.982;5.878;2023-02-28T03:22:52;7.65;;;2.65;;
39032;SDS011;24794;51.982;5.878;2023-02-28T03:25:12;6.43;;;2.70;;
39032;SDS011;24794;51.982;5.878;2023-02-28T03:26:23;4.05;;;2.30;;
39032;SDS011;24794;51.982;5.878;2023-02-28T03:27:30;5.05;;;2.60;;
39032;SDS011;24794;51.982;5.878;2023-02-28T03:28:43;6.25;;;2.80;;
39032;SDS011;24794;51.982;5.878;2023-02-28T03:29:57;6.22;;;2.70;;
39032;SDS011;24794;51.982;5.878;2023-02-28T03:32:24;5.13;;;2.72;;
39032;SDS011;24794;51.982;5.878;2023-02-28T03:33:34;6.30;;;2.80;;
39032;SDS011;24794;51.982;5.878;2023-02-28T03:34:46;4.70;;;2.47;;
39032;SDS011;24794;51.982;5.878;2023-02-28T03:35:55;5.57;;;2.50;;
39032;SDS011;24794;51.982;5.878;2023-02-28T03:37:00;4.55;;;2.22;;
39032;SDS011;24794;51.982;5.878;2023-02-28T03:38:17;6.13;;;2.90;;
39032;SDS011;24794;51.982;5.878;2023-02-28T03:39:23;5.10;;;2.47;;
39032;SDS011;24794;51.982;5.878;2023-02-28T03:40:37;4.97;;;2.72;;
39032;SDS011;24794;51.982;5.878;2023-02-28T03:41:42;4.15;;;2.50;;
39032;SDS011;24794;51.982;5.878;2023-02-28T03:42:59;7.25;;;3.03;;
39032;SDS011;24794;51.982;5.878;2023-02-28T03:44:05;4.88;;;2.35;;
39032;SDS011;24794;51.982;5.878;2023-02-28T03:45:11;5.53;;;2.60;;
39032;SDS011;24794;51.982;5.878;2023-02-28T03:46:17;6.38;;;2.60;;
39032;SDS011;24794;51.982;5.878;2023-02-28T03:47:31;3.50;;;2.30;;
39032;SDS011;24794;51.982;5.878;2023-02-28T03:48:43;3.50;;;2.15;;
39032;SDS011;24794;51.982;5.878;2023-02-28T03:50:09;4.97;;;2.00;;
39032;SDS011;24794;51.982;5.878;2023-02-28T03:51:15;2.80;;;1.80;;
39032;SDS011;24794;51.982;5.878;2023-02-28T03:52:19;2.97;;;1.75;;
39032;SDS011;24794;51.982;5.878;2023-02-28T03:53:25;4.95;;;1.70;;
39032;SDS011;24794;51.982;5.878;2023-02-28T03:54:33;2.97;;;1.30;;
39032;SDS011;24794;51.982;5.878;2023-02-28T03:55:44;2.42;;;1.35;;
39032;SDS011;24794;51.982;5.878;2023-02-28T03:56:50;2.60;;;1.30;;
39032;SDS011;24794;51.982;5.878;2023-02-28T03:59:32;2.35;;;1.20;;
39032;SDS011;24794;51.982;5.878;2023-02-28T04:00:40;1.67;;;1.20;;
39032;SDS011;24794;51.982;5.878;2023-02-28T04:01:48;4.38;;;1.55;;
39032;SDS011;24794;51.982;5.878;2023-02-28T04:02:49;3.10;;;1.42;;
39032;SDS011;24794;51.982;5.878;2023-02-28T04:03:52;2.72;;;1.30;;
39032;SDS011;24794;51.982;5.878;2023-02-28T04:04:53;1.98;;;1.40;;
39032;SDS011;24794;51.982;5.878;2023-02-28T04:05:54;2.33;;;0.98;;
39032;SDS011;24794;51.982;5.878;2023-02-28T04:07:00;1.60;;;1.00;;
39032;SDS011;24794;51.982;5.878;2023-02-28T04:08:06;1.25;;;0.90;;
39032;SDS011;24794;51.982;5.878;2023-02-28T04:09:09;2.25;;;0.90;;
39032;SDS011;24794;51.982;5.878;2023-02-28T04:10:12;1.25;;;0.82;;
39032;SDS011;24794;51.982;5.878;2023-02-28T04:11:21;1.98;;;0.90;;
39032;SDS011;24794;51.982;5.878;2023-02-28T04:12:25;3.33;;;1.00;;
39032;SDS011;24794;51.982;5.878;2023-02-28T04:13:26;1.52;;;1.00;;
39032;SDS011;24794;51.982;5.878;2023-02-28T04:14:26;2.88;;;1.10;;
39032;SDS011;24794;51.982;5.878;2023-02-28T04:15:27;1.77;;;0.70;;
39032;SDS011;24794;51.982;5.878;2023-02-28T04:16:28;1.65;;;1.05;;
39032;SDS011;24794;51.982;5.878;2023-02-28T04:17:29;1.50;;;1.00;;
39032;SDS011;24794;51.982;5.878;2023-02-28T04:18:30;2.95;;;1.10;;
39032;SDS011;24794;51.982;5.878;2023-02-28T04:19:30;1.77;;;0.93;;
39032;SDS011;24794;51.982;5.878;2023-02-28T04:20:31;1.45;;;0.80;;
39032;SDS011;24794;51.982;5.878;2023-02-28T04:21:32;1.98;;;1.02;;
39032;SDS011;24794;51.982;5.878;2023-02-28T04:22:43;1.50;;;0.80;;
39032;SDS011;24794;51.982;5.878;2023-02-28T04:23:44;1.40;;;0.77;;
39032;SDS011;24794;51.982;5.878;2023-02-28T04:24:44;1.25;;;0.70;;
39032;SDS011;24794;51.982;5.878;2023-02-28T04:25:45;1.02;;;0.80;;
39032;SDS011;24794;51.982;5.878;2023-02-28T04:26:46;1.85;;;0.80;;
39032;SDS011;24794;51.982;5.878;2023-02-28T04:27:49;3.30;;;1.10;;
39032;SDS011;24794;51.982;5.878;2023-02-28T04:28:50;1.40;;;0.93;;
39032;SDS011;24794;51.982;5.878;2023-02-28T04:29:50;2.00;;;1.02;;
39032;SDS011;24794;51.982;5.878;2023-02-28T04:30:55;1.30;;;0.80;;
39032;SDS011;24794;51.982;5.878;2023-02-28T04:32:04;2.88;;;0.85;;
39032;SDS011;24794;51.982;5.878;2023-02-28T04:33:05;1.73;;;0.90;;
39032;SDS011;24794;51.982;5.878;2023-02-28T04:34:06;2.25;;;0.95;;
39032;SDS011;24794;51.982;5.878;2023-02-28T04:35:07;1.15;;;0.60;;
39032;SDS011;24794;51.982;5.878;2023-02-28T04:36:08;2.42;;;1.00;;
39032;SDS011;24794;51.982;5.878;2023-02-28T04:37:09;2.72;;;1.13;;
39032;SDS011;24794;51.982;5.878;2023-02-28T04:38:09;1.55;;;0.90;;
39032;SDS011;24794;51.982;5.878;2023-02-28T04:39:10;4.18;;;1.10;;
39032;SDS011;24794;51.982;5.878;2023-02-28T04:40:10;2.63;;;1.27;;
39032;SDS011;24794;51.982;5.878;2023-02-28T04:41:12;3.45;;;1.15;;
39032;SDS011;24794;51.982;5.878;2023-02-28T04:42:13;1.70;;;1.00;;
39032;SDS011;24794;51.982;5.878;2023-02-28T04:43:14;2.53;;;1.20;;
39032;SDS011;24794;51.982;5.878;2023-02-28T04:44:15;2.60;;;1.10;;
39032;SDS011;24794;51.982;5.878;2023-02-28T04:45:16;2.72;;;1.15;;
39032;SDS011;24794;51.982;5.878;2023-02-28T04:46:17;2.40;;;1.27;;
39032;SDS011;24794;51.982;5.878;2023-02-28T04:47:18;3.10;;;1.27;;
39032;SDS011;24794;51.982;5.878;2023-02-28T04:48:18;4.35;;;1.50;;
39032;SDS011;24794;51.982;5.878;2023-02-28T04:49:19;1.95;;;1.20;;
39032;SDS011;24794;51.982;5.878;2023-02-28T04:50:20;3.15;;;1.45;;
39032;SDS011;24794;51.982;5.878;2023-02-28T04:51:20;2.50;;;1.38;;
39032;SDS011;24794;51.982;5.878;2023-02-28T04:52:21;2.50;;;1.50;;
39032;SDS011;24794;51.982;5.878;2023-02-28T04:53:22;1.98;;;1.20;;
39032;SDS011;24794;51.982;5.878;2023-02-28T04:54:23;2.33;;;1.45;;
39032;SDS011;24794;51.982;5.878;2023-02-28T04:55:24;2.92;;;1.50;;
39032;SDS011;24794;51.982;5.878;2023-02-28T04:56:25;2.58;;;1.63;;
39032;SDS011;24794;51.982;5.878;2023-02-28T04:57:25;2.55;;;1.55;;
39032;SDS011;24794;51.982;5.878;2023-02-28T04:58:26;2.13;;;1.33;;
39032;SDS011;24794;51.982;5.878;2023-02-28T04:59:28;2.45;;;1.70;;
39032;SDS011;24794;51.982;5.878;2023-02-28T05:00:28;3.08;;;1.50;;
39032;SDS011;24794;51.982;5.878;2023-02-28T05:01:30;2.78;;;1.70;;
39032;SDS011;24794;51.982;5.878;2023-02-28T05:02:34;2.55;;;1.40;;
39032;SDS011;24794;51.982;5.878;2023-02-28T05:03:35;1.83;;;1.30;;
39032;SDS011;24794;51.982;5.878;2023-02-28T05:04:36;2.30;;;1.48;;
39032;SDS011;24794;51.982;5.878;2023-02-28T05:05:37;3.78;;;1.30;;
39032;SDS011;24794;51.982;5.878;2023-02-28T05:06:37;2.45;;;1.35;;
39032;SDS011;24794;51.982;5.878;2023-02-28T05:07:38;3.00;;;1.52;;
39032;SDS011;24794;51.982;5.878;2023-02-28T05:08:39;2.63;;;1.50;;
39032;SDS011;24794;51.982;5.878;2023-02-28T05:09:40;1.80;;;1.35;;
39032;SDS011;24794;51.982;5.878;2023-02-28T05:10:40;2.33;;;1.27;;
39032;SDS011;24794;51.982;5.878;2023-02-28T05:11:41;2.90;;;1.40;;
39032;SDS011;24794;51.982;5.878;2023-02-28T05:12:41;4.65;;;1.30;;
39032;SDS011;24794;51.982;5.878;2023-02-28T05:13:42;1.23;;;1.08;;
39032;SDS011;24794;51.982;5.878;2023-02-28T05:14:43;2.38;;;1.25;;
39032;SDS011;24794;51.982;5.878;2023-02-28T05:15:44;2.08;;;1.10;;
39032;SDS011;24794;51.982;5.878;2023-02-28T05:16:44;4.40;;;1.60;;
39032;SDS011;24794;51.982;5.878;2023-02-28T05:17:45;2.00;;;1.27;;
39032;SDS011;24794;51.982;5.878;2023-02-28T05:18:45;2.50;;;1.30;;
39032;SDS011;24794;51.982;5.878;2023-02-28T05:19:46;2.63;;;1.48;;
39032;SDS011;24794;51.982;5.878;2023-02-28T05:20:47;4.75;;;1.27;;
39032;SDS011;24794;51.982;5.878;2023-02-28T05:21:49;2.65;;;1.25;;
39032;SDS011;24794;51.982;5.878;2023-02-28T05:22:52;3.63;;;1.20;;
39032;SDS011;24794;51.982;5.878;2023-02-28T05:23:53;3.25;;;1.50;;
39032;SDS011;24794;51.982;5.878;2023-02-28T05:24:54;1.63;;;1.00;;
39032;SDS011;24794;51.982;5.878;2023-02-28T05:25:55;1.05;;;0.90;;
39032;SDS011;24794;51.982;5.878;2023-02-28T05:26:56;2.60;;;1.33;;
39032;SDS011;24794;51.982;5.878;2023-02-28T05:27:57;3.08;;;1.30;;
39032;SDS011;24794;51.982;5.878;2023-02-28T05:28:57;2.45;;;1.20;;
39032;SDS011;24794;51.982;5.878;2023-02-28T05:29:58;2.80;;;1.20;;
39032;SDS011;24794;51.982;5.878;2023-02-28T05:30:59;2.67;;;1.17;;
39032;SDS011;24794;51.982;5.878;2023-02-28T05:31:59;1.83;;;1.00;;
39032;SDS011;24794;51.982;5.878;2023-02-28T05:33:00;2.13;;;1.10;;
39032;SDS011;24794;51.982;5.878;2023-02-28T05:34:01;3.70;;;1.20;;
39032;SDS011;24794;51.982;5.878;2023-02-28T05:35:01;1.27;;;0.90;;
39032;SDS011;24794;51.982;5.878;2023-02-28T05:36:02;1.60;;;0.93;;
39032;SDS011;24794;51.982;5.878;2023-02-28T05:37:03;1.35;;;1.23;;
39032;SDS011;24794;51.982;5.878;2023-02-28T05:38:05;3.10;;;1.20;;
39032;SDS011;24794;51.982;5.878;2023-02-28T05:39:06;2.40;;;1.42;;
39032;SDS011;24794;51.982;5.878;2023-02-28T05:40:07;2.92;;;1.15;;
39032;SDS011;24794;51.982;5.878;2023-02-28T05:41:11;1.63;;;1.10;;
39032;SDS011;24794;51.982;5.878;2023-02-28T05:42:12;1.45;;;0.93;;
39032;SDS011;24794;51.982;5.878;2023-02-28T05:43:12;1.80;;;1.13;;
39032;SDS011;24794;51.982;5.878;2023-02-28T05:44:13;2.53;;;1.10;;
39032;SDS011;24794;51.982;5.878;2023-02-28T05:45:15;1.27;;;0.95;;
39032;SDS011;24794;51.982;5.878;2023-02-28T05:46:15;1.67;;;1.20;;
39032;SDS011;24794;51.982;5.878;2023-02-28T05:47:16;3.80;;;1.20;;
39032;SDS011;24794;51.982;5.878;2023-02-28T05:48:17;2.30;;;1.10;;
39032;SDS011;24794;51.982;5.878;2023-02-28T05:49:18;1.58;;;1.10;;
39032;SDS011;24794;51.982;5.878;2023-02-28T05:50:18;2.35;;;0.90;;
39032;SDS011;24794;51.982;5.878;2023-02-28T05:51:19;4.75;;;1.50;;
39032;SDS011;24794;51.982;5.878;2023-02-28T05:52:20;2.22;;;1.27;;
39032;SDS011;24794;51.982;5.878;2023-02-28T05:53:20;2.08;;;1.10;;
39032;SDS011;24794;51.982;5.878;2023-02-28T05:54:21;3.38;;;1.20;;
39032;SDS011;24794;51.982;5.878;2023-02-28T05:55:21;2.33;;;1.10;;
39032;SDS011;24794;51.982;5.878;2023-02-28T05:56:22;2.78;;;1.20;;
39032;SDS011;24794;51.982;5.878;2023-02-28T05:57:23;1.40;;;0.98;;
39032;SDS011;24794;51.982;5.878;2023-02-28T05:58:25;3.05;;;1.10;;
39032;SDS011;24794;51.982;5.878;2023-02-28T05:59:29;2.17;;;1.20;;
39032;SDS011;24794;51.982;5.878;2023-02-28T06:00:29;2.03;;;1.10;;
39032;SDS011;24794;51.982;5.878;2023-02-28T06:01:31;1.75;;;1.30;;
39032;SDS011;24794;51.982;5.878;2023-02-28T06:02:35;2.45;;;1.13;;
39032;SDS011;24794;51.982;5.878;2023-02-28T06:03:35;2.33;;;1.33;;
39032;SDS011;24794;51.982;5.878;2023-02-28T06:04:36;2.72;;;1.15;;
39032;SDS011;24794;51.982;5.878;2023-02-28T06:05:37;2.17;;;1.17;;
39032;SDS011;24794;51.982;5.878;2023-02-28T06:06:38;2.38;;;1.15;;
39032;SDS011;24794;51.982;5.878;2023-02-28T06:07:39;1.85;;;1.00;;
39032;SDS011;24794;51.982;5.878;2023-02-28T06:08:39;2.25;;;1.10;;
39032;SDS011;24794;51.982;5.878;2023-02-28T06:09:40;3.63;;;1.20;;
39032;SDS011;24794;51.982;5.878;2023-02-28T06:10:40;1.23;;;1.08;;
39032;SDS011;24794;51.982;5.878;2023-02-28T06:11:41;1.33;;;1.00;;
39032;SDS011;24794;51.982;5.878;2023-02-28T06:12:42;2.75;;;1.20;;
39032;SDS011;24794;51.982;5.878;2023-02-28T06:13:43;2.03;;;1.10;;
39032;SDS011;24794;51.982;5.878;2023-02-28T06:14:43;2.35;;;1.30;;
39032;SDS011;24794;51.982;5.878;2023-02-28T06:15:44;1.30;;;1.00;;
39032;SDS011;24794;51.982;5.878;2023-02-28T06:16:45;1.77;;;1.00;;
39032;SDS011;24794;51.982;5.878;2023-02-28T06:17:46;2.50;;;1.00;;
39032;SDS011;24794;51.982;5.878;2023-02-28T06:18:47;2.28;;;1.00;;
39032;SDS011;24794;51.982;5.878;2023-02-28T06:19:47;2.75;;;1.00;;
39032;SDS011;24794;51.982;5.878;2023-02-28T06:20:54;0.95;;;0.75;;
39032;SDS011;24794;51.982;5.878;2023-02-28T06:21:55;1.55;;;0.80;;
39032;SDS011;24794;51.982;5.878;2023-02-28T06:22:57;2.22;;;1.00;;
39032;SDS011;24794;51.982;5.878;2023-02-28T06:24:00;2.83;;;1.00;;
39032;SDS011;24794;51.982;5.878;2023-02-28T06:25:01;1.88;;;1.23;;
39032;SDS011;24794;51.982;5.878;2023-02-28T06:26:03;2.05;;;1.20;;
39032;SDS011;24794;51.982;5.878;2023-02-28T06:27:03;3.05;;;1.10;;
39032;SDS011;24794;51.982;5.878;2023-02-28T06:28:04;1.88;;;1.02;;
39032;SDS011;24794;51.982;5.878;2023-02-28T06:29:06;4.30;;;1.23;;
39032;SDS011;24794;51.982;5.878;2023-02-28T06:30:07;2.38;;;1.10;;
39032;SDS011;24794;51.982;5.878;2023-02-28T06:31:09;1.92;;;1.13;;
39032;SDS011;24794;51.982;5.878;2023-02-28T06:32:10;3.42;;;1.10;;
39032;SDS011;24794;51.982;5.878;2023-02-28T06:33:11;2.58;;;0.90;;
39032;SDS011;24794;51.982;5.878;2023-02-28T06:34:12;1.85;;;1.13;;
39032;SDS011;24794;51.982;5.878;2023-02-28T06:35:13;2.53;;;0.93;;
39032;SDS011;24794;51.982;5.878;2023-02-28T06:36:14;1.73;;;1.10;;
39032;SDS011;24794;51.982;5.878;2023-02-28T06:37:16;1.77;;;0.90;;
39032;SDS011;24794;51.982;5.878;2023-02-28T06:38:17;2.35;;;1.20;;
39032;SDS011;24794;51.982;5.878;2023-02-28T06:39:18;2.85;;;0.98;;
39032;SDS011;24794;51.982;5.878;2023-02-28T06:40:19;3.78;;;1.30;;
39032;SDS011;24794;51.982;5.878;2023-02-28T06:41:21;2.95;;;1.27;;
39032;SDS011;24794;51.982;5.878;2023-02-28T06:42:23;2.10;;;1.30;;
39032;SDS011;24794;51.982;5.878;2023-02-28T06:43:32;3.50;;;1.20;;
39032;SDS011;24794;51.982;5.878;2023-02-28T06:44:34;4.70;;;1.48;;
39032;SDS011;24794;51.982;5.878;2023-02-28T06:45:35;2.45;;;1.40;;
39032;SDS011;24794;51.982;5.878;2023-02-28T06:46:36;2.22;;;1.20;;
39032;SDS011;24794;51.982;5.878;2023-02-28T06:47:38;2.03;;;1.13;;
39032;SDS011;24794;51.982;5.878;2023-02-28T06:48:40;3.28;;;1.13;;
39032;SDS011;24794;51.982;5.878;2023-02-28T06:49:43;2.08;;;1.10;;
39032;SDS011;24794;51.982;5.878;2023-02-28T06:50:45;1.77;;;1.00;;
39032;SDS011;24794;51.982;5.878;2023-02-28T06:51:46;1.63;;;1.05;;
39032;SDS011;24794;51.982;5.878;2023-02-28T06:52:47;2.67;;;0.98;;